PAEN/ENA METAR and TAF weather

Enter ICAO airport designator
Station Type Date Time Source
PAEN METAR 2019/08/21 01:53 UTC NOAA

PAEN 210153Z 22013KT 10SM FU CLR 15/08 A2976 RMK AO2 SLP078 T01500078


Station Type Date Time Source
PAEN Decoded METAR 2019/08/21 01:53 UTC NOAA

Station name not available
Aug 20, 2019 - 09:53 PM EDT / 2019.08.21 0153 UTC
Wind: from the SW (220 degrees) at 15 MPH (13 KT):0
Visibility: 10 mile(s):0
Sky conditions: clear
Weather: smoke
Temperature: 59.0 F (15.0 C)
Dew Point: 46.0 F (7.8 C)
Relative Humidity: 62%
Pressure (altimeter): 29.76 in. Hg (1007 hPa)
ob: PAEN 210153Z 22013KT 10SM FU CLR 15/08 A2976 RMK AO2 SLP078 T01500078
cycle: 2

Station Type Date Time Source
PAEN TAF 2019/08/20 18:45 UTC NOAA

TAF PAEN 201742Z 2018/2118 VRB06KT 6SM FU FEW010 BKN090
FM202200 22010KT P6SM SCT100

Example: see airport list